sensor_id;sensor_type;location;lat;lon;timestamp;temperature;humidity
32600;DHT22;19277;51.778;7.912;2023-08-24T00:00:50;22.70;84.60
32600;DHT22;19277;51.778;7.912;2023-08-24T00:03:15;22.80;84.50
32600;DHT22;19277;51.778;7.912;2023-08-24T00:05:41;22.90;84.30
32600;DHT22;19277;51.778;7.912;2023-08-24T00:08:08;23.10;83.70
32600;DHT22;19277;51.778;7.912;2023-08-24T00:10:35;23.30;83.20
32600;DHT22;19277;51.778;7.912;2023-08-24T00:13:01;23.30;83.10
32600;DHT22;19277;51.778;7.912;2023-08-24T00:15:26;23.40;82.90
32600;DHT22;19277;51.778;7.912;2023-08-24T00:17:52;23.50;82.40
32600;DHT22;19277;51.778;7.912;2023-08-24T00:20:18;23.70;81.90
32600;DHT22;19277;51.778;7.912;2023-08-24T00:22:45;23.50;81.80
32600;DHT22;19277;51.778;7.912;2023-08-24T00:25:11;23.30;82.30
32600;DHT22;19277;51.778;7.912;2023-08-24T00:27:38;23.20;83.00
32600;DHT22;19277;51.778;7.912;2023-08-24T00:30:05;23.20;82.90
32600;DHT22;19277;51.778;7.912;2023-08-24T00:32:32;23.20;82.70
32600;DHT22;19277;51.778;7.912;2023-08-24T00:35:00;23.00;83.20
32600;DHT22;19277;51.778;7.912;2023-08-24T00:37:26;23.00;83.40
32600;DHT22;19277;51.778;7.912;2023-08-24T00:39:51;22.80;84.20
32600;DHT22;19277;51.778;7.912;2023-08-24T00:42:17;22.60;84.60
32600;DHT22;19277;51.778;7.912;2023-08-24T00:44:43;22.60;84.90
32600;DHT22;19277;51.778;7.912;2023-08-24T00:47:09;22.60;84.70
32600;DHT22;19277;51.778;7.912;2023-08-24T00:49:35;22.20;86.10
32600;DHT22;19277;51.778;7.912;2023-08-24T00:52:01;22.00;86.50
32600;DHT22;19277;51.778;7.912;2023-08-24T00:54:27;22.00;86.60
32600;DHT22;19277;51.778;7.912;2023-08-24T00:56:54;21.90;86.60
32600;DHT22;19277;51.778;7.912;2023-08-24T00:59:20;21.70;87.70
32600;DHT22;19277;51.778;7.912;2023-08-24T01:01:47;21.40;88.80
32600;DHT22;19277;51.778;7.912;2023-08-24T01:04:13;21.40;89.10
32600;DHT22;19277;51.778;7.912;2023-08-24T01:06:39;21.50;87.80
32600;DHT22;19277;51.778;7.912;2023-08-24T01:09:05;21.30;88.70
32600;DHT22;19277;51.778;7.912;2023-08-24T01:16:46;20.90;90.00
32600;DHT22;19277;51.778;7.912;2023-08-24T01:19:34;21.00;90.10
32600;DHT22;19277;51.778;7.912;2023-08-24T01:22:05;21.10;89.20
32600;DHT22;19277;51.778;7.912;2023-08-24T01:24:41;21.00;90.10
32600;DHT22;19277;51.778;7.912;2023-08-24T01:27:09;20.80;90.30
32600;DHT22;19277;51.778;7.912;2023-08-24T01:29:36;20.70;90.60
32600;DHT22;19277;51.778;7.912;2023-08-24T01:32:02;20.80;90.60
32600;DHT22;19277;51.778;7.912;2023-08-24T01:34:28;20.90;90.50
32600;DHT22;19277;51.778;7.912;2023-08-24T01:36:53;21.20;90.00
32600;DHT22;19277;51.778;7.912;2023-08-24T01:39:40;21.30;88.90
32600;DHT22;19277;51.778;7.912;2023-08-24T01:42:09;21.50;88.80
32600;DHT22;19277;51.778;7.912;2023-08-24T01:44:39;21.60;88.00
32600;DHT22;19277;51.778;7.912;2023-08-24T01:47:07;21.70;87.20
32600;DHT22;19277;51.778;7.912;2023-08-24T01:49:37;21.50;87.90
32600;DHT22;19277;51.778;7.912;2023-08-24T01:52:04;21.60;87.20
32600;DHT22;19277;51.778;7.912;2023-08-24T01:54:30;21.50;88.10
32600;DHT22;19277;51.778;7.912;2023-08-24T01:56:56;21.70;87.40
32600;DHT22;19277;51.778;7.912;2023-08-24T01:59:22;21.60;87.30
32600;DHT22;19277;51.778;7.912;2023-08-24T02:01:47;21.80;87.10
32600;DHT22;19277;51.778;7.912;2023-08-24T02:04:13;22.00;86.50
32600;DHT22;19277;51.778;7.912;2023-08-24T02:06:39;22.10;85.90
32600;DHT22;19277;51.778;7.912;2023-08-24T02:09:05;22.00;86.10
32600;DHT22;19277;51.778;7.912;2023-08-24T02:11:30;22.00;86.60
32600;DHT22;19277;51.778;7.912;2023-08-24T02:13:56;22.10;85.70
32600;DHT22;19277;51.778;7.912;2023-08-24T02:16:21;22.00;86.10
32600;DHT22;19277;51.778;7.912;2023-08-24T02:18:47;21.70;86.50
32600;DHT22;19277;51.778;7.912;2023-08-24T02:21:13;21.40;87.70
32600;DHT22;19277;51.778;7.912;2023-08-24T02:23:40;21.30;88.70
32600;DHT22;19277;51.778;7.912;2023-08-24T02:26:06;21.30;88.80
32600;DHT22;19277;51.778;7.912;2023-08-24T02:28:32;21.30;88.40
32600;DHT22;19277;51.778;7.912;2023-08-24T02:31:02;21.50;88.20
32600;DHT22;19277;51.778;7.912;2023-08-24T02:33:28;21.70;87.40
32600;DHT22;19277;51.778;7.912;2023-08-24T02:35:55;21.90;86.60
32600;DHT22;19277;51.778;7.912;2023-08-24T02:38:20;22.10;86.30
32600;DHT22;19277;51.778;7.912;2023-08-24T02:40:46;22.20;86.00
32600;DHT22;19277;51.778;7.912;2023-08-24T02:43:11;22.30;85.70
32600;DHT22;19277;51.778;7.912;2023-08-24T02:45:37;22.40;85.50
32600;DHT22;19277;51.778;7.912;2023-08-24T02:48:03;22.50;84.90
32600;DHT22;19277;51.778;7.912;2023-08-24T02:50:30;22.60;85.00
32600;DHT22;19277;51.778;7.912;2023-08-24T02:52:55;22.60;84.80
32600;DHT22;19277;51.778;7.912;2023-08-24T02:55:26;22.70;84.70
32600;DHT22;19277;51.778;7.912;2023-08-24T02:57:51;22.80;84.80
32600;DHT22;19277;51.778;7.912;2023-08-24T03:00:17;22.90;84.30
32600;DHT22;19277;51.778;7.912;2023-08-24T03:02:42;22.90;84.20
32600;DHT22;19277;51.778;7.912;2023-08-24T03:05:08;22.90;84.10
32600;DHT22;19277;51.778;7.912;2023-08-24T03:07:34;23.00;84.10
32600;DHT22;19277;51.778;7.912;2023-08-24T03:09:59;23.00;83.80
32600;DHT22;19277;51.778;7.912;2023-08-24T03:12:25;23.00;83.30
32600;DHT22;19277;51.778;7.912;2023-08-24T03:14:53;23.00;83.70
32600;DHT22;19277;51.778;7.912;2023-08-24T03:17:20;23.00;83.80
32600;DHT22;19277;51.778;7.912;2023-08-24T03:19:46;23.10;83.90
32600;DHT22;19277;51.778;7.912;2023-08-24T03:22:11;23.10;83.40
32600;DHT22;19277;51.778;7.912;2023-08-24T03:24:37;23.10;84.30
32600;DHT22;19277;51.778;7.912;2023-08-24T03:27:03;23.10;83.20
32600;DHT22;19277;51.778;7.912;2023-08-24T03:29:28;23.00;83.60
32600;DHT22;19277;51.778;7.912;2023-08-24T03:31:54;23.00;83.80
32600;DHT22;19277;51.778;7.912;2023-08-24T03:34:20;23.00;84.10
32600;DHT22;19277;51.778;7.912;2023-08-24T03:36:46;23.00;83.90
32600;DHT22;19277;51.778;7.912;2023-08-24T03:39:13;23.00;83.80
32600;DHT22;19277;51.778;7.912;2023-08-24T03:41:41;23.00;84.20
32600;DHT22;19277;51.778;7.912;2023-08-24T03:44:06;23.00;83.70
32600;DHT22;19277;51.778;7.912;2023-08-24T03:46:32;23.00;84.30
32600;DHT22;19277;51.778;7.912;2023-08-24T03:48:57;23.00;84.30
32600;DHT22;19277;51.778;7.912;2023-08-24T03:51:23;23.00;84.40
32600;DHT22;19277;51.778;7.912;2023-08-24T03:53:48;23.00;84.20
32600;DHT22;19277;51.778;7.912;2023-08-24T03:56:14;23.10;84.20
32600;DHT22;19277;51.778;7.912;2023-08-24T03:58:42;23.10;84.20
32600;DHT22;19277;51.778;7.912;2023-08-24T04:01:10;23.20;84.20
32600;DHT22;19277;51.778;7.912;2023-08-24T04:03:36;23.10;84.00
32600;DHT22;19277;51.778;7.912;2023-08-24T04:06:01;23.20;84.10
32600;DHT22;19277;51.778;7.912;2023-08-24T04:08:27;23.20;83.80
32600;DHT22;19277;51.778;7.912;2023-08-24T04:10:53;23.20;84.20
32600;DHT22;19277;51.778;7.912;2023-08-24T04:13:19;23.20;84.40
32600;DHT22;19277;51.778;7.912;2023-08-24T04:15:44;23.30;84.00
32600;DHT22;19277;51.778;7.912;2023-08-24T04:18:10;23.30;83.90
32600;DHT22;19277;51.778;7.912;2023-08-24T04:20:36;23.30;84.20
32600;DHT22;19277;51.778;7.912;2023-08-24T04:23:02;23.30;84.30
32600;DHT22;19277;51.778;7.912;2023-08-24T04:25:27;23.30;84.30
32600;DHT22;19277;51.778;7.912;2023-08-24T04:27:54;23.30;83.70
32600;DHT22;19277;51.778;7.912;2023-08-24T04:30:20;23.30;84.00
32600;DHT22;19277;51.778;7.912;2023-08-24T04:32:47;23.40;84.20
32600;DHT22;19277;51.778;7.912;2023-08-24T04:35:12;23.40;83.80
32600;DHT22;19277;51.778;7.912;2023-08-24T04:37:38;23.40;83.80
32600;DHT22;19277;51.778;7.912;2023-08-24T04:40:05;23.40;83.80
32600;DHT22;19277;51.778;7.912;2023-08-24T04:42:33;23.40;84.20
32600;DHT22;19277;51.778;7.912;2023-08-24T04:44:58;23.40;83.80
32600;DHT22;19277;51.778;7.912;2023-08-24T04:47:24;23.30;84.10
32600;DHT22;19277;51.778;7.912;2023-08-24T04:49:49;23.30;83.50
32600;DHT22;19277;51.778;7.912;2023-08-24T04:52:15;23.30;84.00
32600;DHT22;19277;51.778;7.912;2023-08-24T04:54:40;23.30;84.10
32600;DHT22;19277;51.778;7.912;2023-08-24T04:57:06;23.30;84.20
32600;DHT22;19277;51.778;7.912;2023-08-24T04:59:32;23.30;84.30
32600;DHT22;19277;51.778;7.912;2023-08-24T05:01:57;23.30;84.10
32600;DHT22;19277;51.778;7.912;2023-08-24T05:04:24;23.30;84.30
32600;DHT22;19277;51.778;7.912;2023-08-24T05:06:49;23.30;84.40
32600;DHT22;19277;51.778;7.912;2023-08-24T05:09:15;23.30;84.40
32600;DHT22;19277;51.778;7.912;2023-08-24T05:11:40;23.30;84.40
32600;DHT22;19277;51.778;7.912;2023-08-24T05:14:06;23.40;84.30
32600;DHT22;19277;51.778;7.912;2023-08-24T05:16:32;23.40;84.50
32600;DHT22;19277;51.778;7.912;2023-08-24T05:18:57;23.40;84.60
32600;DHT22;19277;51.778;7.912;2023-08-24T05:21:23;23.40;84.50
32600;DHT22;19277;51.778;7.912;2023-08-24T05:23:48;23.50;84.60
32600;DHT22;19277;51.778;7.912;2023-08-24T05:26:14;23.50;84.60
32600;DHT22;19277;51.778;7.912;2023-08-24T05:28:47;23.50;84.60
32600;DHT22;19277;51.778;7.912;2023-08-24T05:31:13;23.50;84.70
32600;DHT22;19277;51.778;7.912;2023-08-24T05:33:38;23.50;84.60
32600;DHT22;19277;51.778;7.912;2023-08-24T05:36:04;23.50;84.60
32600;DHT22;19277;51.778;7.912;2023-08-24T05:38:30;23.60;84.60
32600;DHT22;19277;51.778;7.912;2023-08-24T05:40:55;23.60;84.70
32600;DHT22;19277;51.778;7.912;2023-08-24T05:43:21;23.60;84.80
32600;DHT22;19277;51.778;7.912;2023-08-24T05:45:48;23.60;84.90
32600;DHT22;19277;51.778;7.912;2023-08-24T05:48:14;23.60;84.90
32600;DHT22;19277;51.778;7.912;2023-08-24T05:50:46;23.70;84.80
32600;DHT22;19277;51.778;7.912;2023-08-24T05:53:12;23.70;84.90
32600;DHT22;19277;51.778;7.912;2023-08-24T05:55:38;23.70;85.00
32600;DHT22;19277;51.778;7.912;2023-08-24T05:58:04;23.70;85.00
32600;DHT22;19277;51.778;7.912;2023-08-24T06:00:29;23.70;85.60
32600;DHT22;19277;51.778;7.912;2023-08-24T06:02:55;23.70;85.20
32600;DHT22;19277;51.778;7.912;2023-08-24T06:05:21;23.70;85.20
32600;DHT22;19277;51.778;7.912;2023-08-24T06:07:46;23.70;85.50
32600;DHT22;19277;51.778;7.912;2023-08-24T06:10:12;23.70;85.50
32600;DHT22;19277;51.778;7.912;2023-08-24T06:12:38;23.70;85.70
32600;DHT22;19277;51.778;7.912;2023-08-24T06:15:04;23.70;86.10
32600;DHT22;19277;51.778;7.912;2023-08-24T06:17:30;23.70;85.50
32600;DHT22;19277;51.778;7.912;2023-08-24T06:19:56;23.80;85.50
32600;DHT22;19277;51.778;7.912;2023-08-24T06:22:21;23.80;85.40
32600;DHT22;19277;51.778;7.912;2023-08-24T06:24:47;23.70;85.20
32600;DHT22;19277;51.778;7.912;2023-08-24T06:27:12;23.70;85.10
32600;DHT22;19277;51.778;7.912;2023-08-24T06:29:42;23.70;85.90
32600;DHT22;19277;51.778;7.912;2023-08-24T06:32:08;23.70;85.80
32600;DHT22;19277;51.778;7.912;2023-08-24T06:34:34;23.70;86.30
32600;DHT22;19277;51.778;7.912;2023-08-24T06:37:01;23.70;86.50
32600;DHT22;19277;51.778;7.912;2023-08-24T06:39:27;23.70;86.40
32600;DHT22;19277;51.778;7.912;2023-08-24T06:41:53;23.70;86.50
32600;DHT22;19277;51.778;7.912;2023-08-24T06:44:18;23.70;86.70
32600;DHT22;19277;51.778;7.912;2023-08-24T06:46:44;23.70;86.70
32600;DHT22;19277;51.778;7.912;2023-08-24T06:49:10;23.80;86.70
32600;DHT22;19277;51.778;7.912;2023-08-24T06:51:35;23.80;86.20
32600;DHT22;19277;51.778;7.912;2023-08-24T06:54:01;23.80;86.30
32600;DHT22;19277;51.778;7.912;2023-08-24T06:56:27;23.80;86.50
32600;DHT22;19277;51.778;7.912;2023-08-24T06:58:53;23.90;86.50
32600;DHT22;19277;51.778;7.912;2023-08-24T07:01:18;24.00;86.20
32600;DHT22;19277;51.778;7.912;2023-08-24T07:03:44;24.20;86.00
32600;DHT22;19277;51.778;7.912;2023-08-24T07:06:09;24.30;86.00
32600;DHT22;19277;51.778;7.912;2023-08-24T07:08:39;24.40;85.90
32600;DHT22;19277;51.778;7.912;2023-08-24T07:11:05;24.50;86.00
32600;DHT22;19277;51.778;7.912;2023-08-24T07:13:31;24.60;86.10
32600;DHT22;19277;51.778;7.912;2023-08-24T07:15:57;24.70;85.50
32600;DHT22;19277;51.778;7.912;2023-08-24T07:18:23;24.70;85.20
32600;DHT22;19277;51.778;7.912;2023-08-24T07:20:48;24.80;85.40
32600;DHT22;19277;51.778;7.912;2023-08-24T07:23:14;24.80;84.60
32600;DHT22;19277;51.778;7.912;2023-08-24T07:25:40;24.90;84.30
32600;DHT22;19277;51.778;7.912;2023-08-24T07:28:06;25.00;84.10
32600;DHT22;19277;51.778;7.912;2023-08-24T07:30:32;25.00;83.70
32600;DHT22;19277;51.778;7.912;2023-08-24T07:32:58;25.00;83.80
32600;DHT22;19277;51.778;7.912;2023-08-24T07:35:23;25.00;84.10
32600;DHT22;19277;51.778;7.912;2023-08-24T07:37:52;25.10;83.80
32600;DHT22;19277;51.778;7.912;2023-08-24T07:40:18;25.10;83.90
32600;DHT22;19277;51.778;7.912;2023-08-24T07:42:49;25.10;84.10
32600;DHT22;19277;51.778;7.912;2023-08-24T07:45:16;25.10;84.40
32600;DHT22;19277;51.778;7.912;2023-08-24T07:47:42;25.10;84.30
32600;DHT22;19277;51.778;7.912;2023-08-24T07:50:09;25.10;84.30
32600;DHT22;19277;51.778;7.912;2023-08-24T07:52:37;25.10;84.30
32600;DHT22;19277;51.778;7.912;2023-08-24T07:55:03;25.20;83.80
32600;DHT22;19277;51.778;7.912;2023-08-24T07:57:29;25.10;84.20
32600;DHT22;19277;51.778;7.912;2023-08-24T07:59:55;25.20;84.40
32600;DHT22;19277;51.778;7.912;2023-08-24T08:02:20;25.20;84.20
32600;DHT22;19277;51.778;7.912;2023-08-24T08:04:46;25.20;85.10
32600;DHT22;19277;51.778;7.912;2023-08-24T08:07:12;25.20;84.80
32600;DHT22;19277;51.778;7.912;2023-08-24T08:09:38;25.20;84.00
32600;DHT22;19277;51.778;7.912;2023-08-24T08:12:03;25.20;84.00
32600;DHT22;19277;51.778;7.912;2023-08-24T08:14:29;25.20;84.20
32600;DHT22;19277;51.778;7.912;2023-08-24T08:16:56;25.10;84.50
32600;DHT22;19277;51.778;7.912;2023-08-24T08:19:21;25.10;84.40
32600;DHT22;19277;51.778;7.912;2023-08-24T08:21:49;25.10;84.20
32600;DHT22;19277;51.778;7.912;2023-08-24T08:24:15;25.10;83.90
32600;DHT22;19277;51.778;7.912;2023-08-24T08:26:40;25.10;83.10
32600;DHT22;19277;51.778;7.912;2023-08-24T08:29:06;25.10;82.60
32600;DHT22;19277;51.778;7.912;2023-08-24T08:31:31;25.10;83.30
32600;DHT22;19277;51.778;7.912;2023-08-24T08:33:57;25.10;83.70
32600;DHT22;19277;51.778;7.912;2023-08-24T08:36:22;25.10;83.80
32600;DHT22;19277;51.778;7.912;2023-08-24T08:38:48;25.10;83.50
32600;DHT22;19277;51.778;7.912;2023-08-24T08:41:15;25.10;83.50
32600;DHT22;19277;51.778;7.912;2023-08-24T08:43:42;25.00;82.00
32600;DHT22;19277;51.778;7.912;2023-08-24T08:46:07;25.00;82.40
32600;DHT22;19277;51.778;7.912;2023-08-24T08:48:34;25.00;82.30
32600;DHT22;19277;51.778;7.912;2023-08-24T08:51:00;25.00;81.90
32600;DHT22;19277;51.778;7.912;2023-08-24T08:53:28;25.00;81.80
32600;DHT22;19277;51.778;7.912;2023-08-24T08:55:54;25.00;81.70
32600;DHT22;19277;51.778;7.912;2023-08-24T08:58:23;25.10;82.20
32600;DHT22;19277;51.778;7.912;2023-08-24T09:00:49;25.10;82.40
32600;DHT22;19277;51.778;7.912;2023-08-24T09:03:18;25.00;82.50
32600;DHT22;19277;51.778;7.912;2023-08-24T09:05:44;25.10;82.00
32600;DHT22;19277;51.778;7.912;2023-08-24T09:08:14;25.00;82.00
32600;DHT22;19277;51.778;7.912;2023-08-24T09:10:41;25.00;82.10
32600;DHT22;19277;51.778;7.912;2023-08-24T09:13:06;25.00;82.40
32600;DHT22;19277;51.778;7.912;2023-08-24T09:15:35;25.00;82.20
32600;DHT22;19277;51.778;7.912;2023-08-24T09:18:01;25.10;82.00
32600;DHT22;19277;51.778;7.912;2023-08-24T09:20:28;25.00;81.60
32600;DHT22;19277;51.778;7.912;2023-08-24T09:22:57;25.10;81.90
32600;DHT22;19277;51.778;7.912;2023-08-24T09:25:24;25.10;82.20
32600;DHT22;19277;51.778;7.912;2023-08-24T09:28:00;25.10;82.40
32600;DHT22;19277;51.778;7.912;2023-08-24T09:30:35;25.10;82.60
32600;DHT22;19277;51.778;7.912;2023-08-24T09:33:02;25.10;82.80
32600;DHT22;19277;51.778;7.912;2023-08-24T09:35:28;25.10;82.00
32600;DHT22;19277;51.778;7.912;2023-08-24T09:37:54;25.10;82.10
32600;DHT22;19277;51.778;7.912;2023-08-24T09:40:24;25.10;82.30
32600;DHT22;19277;51.778;7.912;2023-08-24T09:42:52;25.10;82.40
32600;DHT22;19277;51.778;7.912;2023-08-24T09:45:17;25.10;82.40
32600;DHT22;19277;51.778;7.912;2023-08-24T09:47:49;25.20;82.50
32600;DHT22;19277;51.778;7.912;2023-08-24T09:50:15;25.20;82.50
32600;DHT22;19277;51.778;7.912;2023-08-24T09:52:42;25.20;82.30
32600;DHT22;19277;51.778;7.912;2023-08-24T09:55:09;25.20;82.30
32600;DHT22;19277;51.778;7.912;2023-08-24T09:57:37;25.20;82.20
32600;DHT22;19277;51.778;7.912;2023-08-24T10:00:06;25.20;82.00
32600;DHT22;19277;51.778;7.912;2023-08-24T10:02:37;25.20;81.90
32600;DHT22;19277;51.778;7.912;2023-08-24T10:05:05;25.20;81.80
32600;DHT22;19277;51.778;7.912;2023-08-24T10:07:31;25.20;81.50
32600;DHT22;19277;51.778;7.912;2023-08-24T10:10:08;25.20;81.60
32600;DHT22;19277;51.778;7.912;2023-08-24T10:12:41;25.20;81.80
32600;DHT22;19277;51.778;7.912;2023-08-24T10:15:07;25.30;81.80
32600;DHT22;19277;51.778;7.912;2023-08-24T10:17:36;25.30;81.60
32600;DHT22;19277;51.778;7.912;2023-08-24T10:20:01;25.30;81.40
32600;DHT22;19277;51.778;7.912;2023-08-24T10:22:31;25.30;81.70
32600;DHT22;19277;51.778;7.912;2023-08-24T10:24:58;25.30;81.80
32600;DHT22;19277;51.778;7.912;2023-08-24T10:27:24;25.30;81.70
32600;DHT22;19277;51.778;7.912;2023-08-24T10:29:51;25.30;81.70
32600;DHT22;19277;51.778;7.912;2023-08-24T10:32:17;25.30;81.80
32600;DHT22;19277;51.778;7.912;2023-08-24T10:34:45;25.30;81.60
32600;DHT22;19277;51.778;7.912;2023-08-24T10:37:11;25.30;81.70
32600;DHT22;19277;51.778;7.912;2023-08-24T10:39:43;25.30;81.60
32600;DHT22;19277;51.778;7.912;2023-08-24T10:42:10;25.40;81.40
32600;DHT22;19277;51.778;7.912;2023-08-24T10:44:38;25.30;81.50
32600;DHT22;19277;51.778;7.912;2023-08-24T10:49:44;25.40;81.80
32600;DHT22;19277;51.778;7.912;2023-08-24T10:55:02;25.40;82.40
32600;DHT22;19277;51.778;7.912;2023-08-24T10:57:39;25.40;83.20
32600;DHT22;19277;51.778;7.912;2023-08-24T11:00:11;25.40;82.90
32600;DHT22;19277;51.778;7.912;2023-08-24T11:02:47;25.40;83.00
32600;DHT22;19277;51.778;7.912;2023-08-24T11:10:23;25.50;83.60
32600;DHT22;19277;51.778;7.912;2023-08-24T11:13:09;25.50;83.80
32600;DHT22;19277;51.778;7.912;2023-08-24T11:15:39;25.50;83.90
32600;DHT22;19277;51.778;7.912;2023-08-24T11:20:38;25.50;84.60
32600;DHT22;19277;51.778;7.912;2023-08-24T11:23:05;25.60;84.40
32600;DHT22;19277;51.778;7.912;2023-08-24T11:25:35;25.60;84.60
32600;DHT22;19277;51.778;7.912;2023-08-24T11:28:05;25.60;84.70
32600;DHT22;19277;51.778;7.912;2023-08-24T11:30:31;25.60;84.50
32600;DHT22;19277;51.778;7.912;2023-08-24T11:32:58;25.60;84.70
32600;DHT22;19277;51.778;7.912;2023-08-24T11:35:24;25.60;84.80
32600;DHT22;19277;51.778;7.912;2023-08-24T11:37:53;25.60;84.80
32600;DHT22;19277;51.778;7.912;2023-08-24T11:40:19;25.70;84.90
32600;DHT22;19277;51.778;7.912;2023-08-24T11:42:46;25.70;85.00
32600;DHT22;19277;51.778;7.912;2023-08-24T11:45:12;25.70;85.10
32600;DHT22;19277;51.778;7.912;2023-08-24T11:47:38;25.70;85.10
32600;DHT22;19277;51.778;7.912;2023-08-24T11:50:04;25.70;85.20
32600;DHT22;19277;51.778;7.912;2023-08-24T11:52:30;25.80;85.30
32600;DHT22;19277;51.778;7.912;2023-08-24T11:55:00;25.80;85.30
32600;DHT22;19277;51.778;7.912;2023-08-24T11:57:26;25.80;85.20
32600;DHT22;19277;51.778;7.912;2023-08-24T11:59:54;25.80;85.30
32600;DHT22;19277;51.778;7.912;2023-08-24T12:02:20;25.80;85.40
32600;DHT22;19277;51.778;7.912;2023-08-24T12:04:48;25.80;85.50
32600;DHT22;19277;51.778;7.912;2023-08-24T12:07:14;25.90;85.50
32600;DHT22;19277;51.778;7.912;2023-08-24T12:09:41;25.90;85.50
32600;DHT22;19277;51.778;7.912;2023-08-24T12:12:12;25.90;85.50
32600;DHT22;19277;51.778;7.912;2023-08-24T12:14:45;25.90;85.60
32600;DHT22;19277;51.778;7.912;2023-08-24T12:17:12;25.90;85.60
32600;DHT22;19277;51.778;7.912;2023-08-24T12:19:56;26.00;85.40
32600;DHT22;19277;51.778;7.912;2023-08-24T12:22:22;26.00;85.40
32600;DHT22;19277;51.778;7.912;2023-08-24T12:24:48;26.00;85.50
32600;DHT22;19277;51.778;7.912;2023-08-24T12:27:22;26.00;85.50
32600;DHT22;19277;51.778;7.912;2023-08-24T12:29:48;26.00;85.60
32600;DHT22;19277;51.778;7.912;2023-08-24T12:32:14;26.00;85.80
32600;DHT22;19277;51.778;7.912;2023-08-24T12:34:48;26.00;85.80
32600;DHT22;19277;51.778;7.912;2023-08-24T12:37:13;26.00;85.80
32600;DHT22;19277;51.778;7.912;2023-08-24T12:39:39;26.00;85.80
32600;DHT22;19277;51.778;7.912;2023-08-24T12:42:06;26.00;85.70
32600;DHT22;19277;51.778;7.912;2023-08-24T12:44:32;26.00;85.60
32600;DHT22;19277;51.778;7.912;2023-08-24T12:46:58;26.00;85.60
32600;DHT22;19277;51.778;7.912;2023-08-24T12:49:24;26.00;85.50
32600;DHT22;19277;51.778;7.912;2023-08-24T12:51:50;26.00;85.50
32600;DHT22;19277;51.778;7.912;2023-08-24T12:54:15;26.00;85.50
32600;DHT22;19277;51.778;7.912;2023-08-24T12:56:41;26.10;85.60
32600;DHT22;19277;51.778;7.912;2023-08-24T12:59:07;26.10;85.80
32600;DHT22;19277;51.778;7.912;2023-08-24T13:01:33;26.00;85.90
32600;DHT22;19277;51.778;7.912;2023-08-24T13:03:58;26.10;86.20
32600;DHT22;19277;51.778;7.912;2023-08-24T13:06:24;26.10;86.20
32600;DHT22;19277;51.778;7.912;2023-08-24T13:08:50;26.10;86.10
32600;DHT22;19277;51.778;7.912;2023-08-24T13:11:16;26.10;86.10
32600;DHT22;19277;51.778;7.912;2023-08-24T13:13:42;26.10;86.30
32600;DHT22;19277;51.778;7.912;2023-08-24T13:16:08;26.10;86.20
32600;DHT22;19277;51.778;7.912;2023-08-24T13:18:33;26.10;86.20
32600;DHT22;19277;51.778;7.912;2023-08-24T13:20:59;26.10;86.60
32600;DHT22;19277;51.778;7.912;2023-08-24T13:23:25;26.20;86.70
32600;DHT22;19277;51.778;7.912;2023-08-24T13:25:51;26.10;86.90
32600;DHT22;19277;51.778;7.912;2023-08-24T13:28:16;26.10;86.70
32600;DHT22;19277;51.778;7.912;2023-08-24T13:30:42;26.10;87.00
32600;DHT22;19277;51.778;7.912;2023-08-24T13:33:08;26.20;87.10
32600;DHT22;19277;51.778;7.912;2023-08-24T13:35:34;26.10;87.00
32600;DHT22;19277;51.778;7.912;2023-08-24T13:38:00;26.20;87.30
32600;DHT22;19277;51.778;7.912;2023-08-24T13:40:25;26.20;87.40
32600;DHT22;19277;51.778;7.912;2023-08-24T13:42:51;26.20;87.40
32600;DHT22;19277;51.778;7.912;2023-08-24T13:45:16;26.20;87.50
32600;DHT22;19277;51.778;7.912;2023-08-24T13:47:42;26.20;87.70
32600;DHT22;19277;51.778;7.912;2023-08-24T13:50:07;26.20;87.60
32600;DHT22;19277;51.778;7.912;2023-08-24T13:52:33;26.20;88.00
32600;DHT22;19277;51.778;7.912;2023-08-24T13:54:59;26.20;87.60
32600;DHT22;19277;51.778;7.912;2023-08-24T13:57:24;26.20;87.50
32600;DHT22;19277;51.778;7.912;2023-08-24T13:59:50;26.20;87.70
32600;DHT22;19277;51.778;7.912;2023-08-24T14:02:15;26.20;87.90
32600;DHT22;19277;51.778;7.912;2023-08-24T14:04:41;26.20;88.10
32600;DHT22;19277;51.778;7.912;2023-08-24T14:07:07;26.20;87.90
32600;DHT22;19277;51.778;7.912;2023-08-24T14:09:32;26.20;88.00
32600;DHT22;19277;51.778;7.912;2023-08-24T14:11:58;26.20;88.10
32600;DHT22;19277;51.778;7.912;2023-08-24T14:14:24;26.20;88.40
32600;DHT22;19277;51.778;7.912;2023-08-24T14:16:56;26.20;88.60
32600;DHT22;19277;51.778;7.912;2023-08-24T14:19:22;26.20;88.50
32600;DHT22;19277;51.778;7.912;2023-08-24T14:21:48;26.20;88.80
32600;DHT22;19277;51.778;7.912;2023-08-24T14:24:13;26.20;89.00
32600;DHT22;19277;51.778;7.912;2023-08-24T14:26:39;26.20;89.10
32600;DHT22;19277;51.778;7.912;2023-08-24T14:29:11;26.20;89.30
32600;DHT22;19277;51.778;7.912;2023-08-24T14:31:37;26.20;89.30
32600;DHT22;19277;51.778;7.912;2023-08-24T14:34:03;26.20;89.40
32600;DHT22;19277;51.778;7.912;2023-08-24T14:36:28;26.20;89.40
32600;DHT22;19277;51.778;7.912;2023-08-24T14:38:54;26.20;90.00
32600;DHT22;19277;51.778;7.912;2023-08-24T14:41:20;26.20;89.20
32600;DHT22;19277;51.778;7.912;2023-08-24T14:43:46;26.20;89.60
32600;DHT22;19277;51.778;7.912;2023-08-24T14:46:12;26.20;89.70
32600;DHT22;19277;51.778;7.912;2023-08-24T14:48:38;26.30;90.00
32600;DHT22;19277;51.778;7.912;2023-08-24T14:51:04;26.30;90.00
32600;DHT22;19277;51.778;7.912;2023-08-24T14:53:30;26.30;90.10
32600;DHT22;19277;51.778;7.912;2023-08-24T14:55:56;26.30;90.00
32600;DHT22;19277;51.778;7.912;2023-08-24T14:58:24;26.30;90.00
32600;DHT22;19277;51.778;7.912;2023-08-24T15:00:51;26.30;90.00
32600;DHT22;19277;51.778;7.912;2023-08-24T15:03:17;26.30;90.10
32600;DHT22;19277;51.778;7.912;2023-08-24T15:05:45;26.30;90.20
32600;DHT22;19277;51.778;7.912;2023-08-24T15:08:11;26.30;90.20
32600;DHT22;19277;51.778;7.912;2023-08-24T15:10:37;26.40;90.10
32600;DHT22;19277;51.778;7.912;2023-08-24T15:13:04;26.30;90.20
32600;DHT22;19277;51.778;7.912;2023-08-24T15:15:30;26.40;90.20
32600;DHT22;19277;51.778;7.912;2023-08-24T15:17:55;26.30;90.20
32600;DHT22;19277;51.778;7.912;2023-08-24T15:20:21;26.40;90.40
32600;DHT22;19277;51.778;7.912;2023-08-24T15:22:46;26.40;90.10
32600;DHT22;19277;51.778;7.912;2023-08-24T15:25:12;26.40;90.10
32600;DHT22;19277;51.778;7.912;2023-08-24T15:27:37;26.40;90.10
32600;DHT22;19277;51.778;7.912;2023-08-24T15:30:03;26.40;90.10
32600;DHT22;19277;51.778;7.912;2023-08-24T15:32:31;26.40;90.10
32600;DHT22;19277;51.778;7.912;2023-08-24T15:34:58;26.40;90.10
32600;DHT22;19277;51.778;7.912;2023-08-24T15:37:23;26.40;90.00
32600;DHT22;19277;51.778;7.912;2023-08-24T15:39:49;26.40;90.30
32600;DHT22;19277;51.778;7.912;2023-08-24T15:42:15;26.40;90.10
32600;DHT22;19277;51.778;7.912;2023-08-24T15:44:40;26.40;90.10